createdAt,value
2022-11-21T00:01:16.783Z,-5.36
2022-11-21T00:03:45.038Z,-5.38
2022-11-21T00:06:13.426Z,-5.39
2022-11-21T00:08:41.686Z,-5.39
2022-11-21T00:11:09.617Z,-5.41
2022-11-21T00:13:37.873Z,-5.41
2022-11-21T00:16:08.109Z,-5.40
2022-11-21T00:18:36.066Z,-5.42
2022-11-21T00:21:06.025Z,-5.43
2022-11-21T00:23:34.050Z,-5.49
2022-11-21T00:26:06.590Z,-5.59
2022-11-21T00:28:35.080Z,-5.64
2022-11-21T00:31:03.708Z,-5.71
2022-11-21T00:33:32.384Z,-5.75
2022-11-21T00:36:06.981Z,-5.76
2022-11-21T00:38:35.594Z,-5.75
2022-11-21T00:41:03.673Z,-5.78
2022-11-21T00:43:31.739Z,-5.76
2022-11-21T00:46:01.535Z,-5.75
2022-11-21T00:48:30.261Z,-5.74
2022-11-21T00:51:00.778Z,-5.76
2022-11-21T00:53:29.941Z,-5.77
2022-11-21T00:55:58.159Z,-5.78
2022-11-21T00:58:26.625Z,-5.83
2022-11-21T01:01:03.619Z,-5.86
2022-11-21T01:03:34.189Z,-5.87
2022-11-21T01:06:12.988Z,-5.88
2022-11-21T01:08:43.386Z,-5.91
2022-11-21T01:11:21.232Z,-5.90
2022-11-21T01:13:50.017Z,-5.91
2022-11-21T01:16:22.711Z,-5.92
2022-11-21T01:18:51.445Z,-5.91
2022-11-21T01:21:30.621Z,-5.89
2022-11-21T01:24:02.904Z,-5.87
2022-11-21T01:26:33.112Z,-5.84
2022-11-21T01:29:01.045Z,-5.80
2022-11-21T01:31:30.649Z,-5.75
2022-11-21T01:34:00.359Z,-5.69
2022-11-21T01:36:31.113Z,-5.61
2022-11-21T01:39:03.570Z,-5.53
2022-11-21T01:41:37.683Z,-5.41
2022-11-21T01:44:17.907Z,-5.30
2022-11-21T01:46:46.527Z,-5.20
2022-11-21T01:49:20.264Z,-5.11
2022-11-21T01:51:56.188Z,-5.02
2022-11-21T01:54:24.480Z,-4.97
2022-11-21T01:57:07.080Z,-4.94
2022-11-21T01:59:44.904Z,-4.85
2022-11-21T02:02:15.524Z,-4.76
2022-11-21T02:04:44.711Z,-4.73
2022-11-21T02:07:14.978Z,-4.68
2022-11-21T02:09:46.832Z,-4.60
2022-11-21T02:12:29.820Z,-4.51
2022-11-21T02:14:58.756Z,-4.40
2022-11-21T02:17:29.852Z,-4.33
2022-11-21T02:20:00.807Z,-4.25
2022-11-21T02:22:34.802Z,-4.17
2022-11-21T02:25:14.240Z,-4.11
2022-11-21T02:27:42.623Z,-4.01
2022-11-21T02:30:12.331Z,-3.95
2022-11-21T02:32:45.353Z,-3.90
2022-11-21T02:35:17.793Z,-3.85
2022-11-21T02:37:48.324Z,-3.80
2022-11-21T02:40:25.554Z,-3.78
2022-11-21T02:43:18.998Z,-3.81
2022-11-21T02:45:47.131Z,-3.80
2022-11-21T02:48:15.450Z,-3.76
2022-11-21T02:50:45.391Z,-3.73
2022-11-21T02:53:16.512Z,-3.69
2022-11-21T02:55:44.972Z,-3.59
2022-11-21T02:58:12.941Z,-3.52
2022-11-21T03:00:42.929Z,-3.48
2022-11-21T03:03:11.524Z,-3.43
2022-11-21T03:05:39.929Z,-3.41
2022-11-21T03:08:08.200Z,-3.41
2022-11-21T03:10:36.280Z,-3.39
2022-11-21T03:13:04.207Z,-3.37
2022-11-21T03:15:34.331Z,-3.33
2022-11-21T03:18:03.352Z,-3.30
2022-11-21T03:20:32.888Z,-3.26
2022-11-21T03:23:01.251Z,-3.18
2022-11-21T03:25:30.233Z,-3.13
2022-11-21T03:27:58.306Z,-3.14
2022-11-21T03:30:27.774Z,-3.13
2022-11-21T03:32:56.848Z,-3.10
2022-11-21T03:35:25.392Z,-3.08
2022-11-21T03:37:53.667Z,-3.05
2022-11-21T03:40:21.656Z,-3.00
2022-11-21T03:42:49.506Z,-3.00
2022-11-21T03:45:17.475Z,-3.01
2022-11-21T03:47:45.314Z,-3.01
2022-11-21T03:50:15.309Z,-2.96
2022-11-21T03:52:43.111Z,-2.93
2022-11-21T03:55:11.095Z,-2.90
2022-11-21T03:57:39.783Z,-2.86
2022-11-21T04:00:08.661Z,-2.85
2022-11-21T04:02:36.507Z,-2.82
2022-11-21T04:05:04.933Z,-2.77
2022-11-21T04:07:32.856Z,-2.74
2022-11-21T04:10:00.839Z,-2.71
2022-11-21T04:12:28.833Z,-2.71
2022-11-21T04:14:56.639Z,-2.72
2022-11-21T04:17:24.411Z,-2.73
2022-11-21T04:19:52.330Z,-2.73
2022-11-21T04:22:20.127Z,-2.75
2022-11-21T04:24:48.065Z,-2.75
2022-11-21T04:27:15.932Z,-2.76
2022-11-21T04:29:43.800Z,-2.76
2022-11-21T04:32:11.667Z,-2.72
2022-11-21T04:34:39.842Z,-2.69
2022-11-21T04:37:11.421Z,-2.63
2022-11-21T04:39:39.774Z,-2.54
2022-11-21T04:42:07.643Z,-2.50
2022-11-21T04:44:35.455Z,-2.50
2022-11-21T04:47:05.529Z,-2.54
2022-11-21T04:49:33.744Z,-2.54
2022-11-21T04:52:01.882Z,-2.59
2022-11-21T04:54:30.253Z,-2.64
2022-11-21T04:56:58.330Z,-2.64
2022-11-21T04:59:26.152Z,-2.62
2022-11-21T05:01:54.063Z,-2.62
2022-11-21T05:04:22.047Z,-2.62
2022-11-21T05:06:49.874Z,-2.61
2022-11-21T05:09:17.972Z,-2.57
2022-11-21T05:12:04.446Z,-2.55
2022-11-21T05:14:32.346Z,-2.51
2022-11-21T05:17:00.315Z,-2.50
2022-11-21T05:19:28.183Z,-2.50
2022-11-21T05:21:56.767Z,-2.52
2022-11-21T05:24:25.131Z,-2.53
2022-11-21T05:26:54.731Z,-2.51
2022-11-21T05:29:27.770Z,-2.47
2022-11-21T05:31:56.428Z,-2.46
2022-11-21T05:34:24.398Z,-2.46
2022-11-21T05:37:01.380Z,-2.44
2022-11-21T05:39:29.285Z,-2.40
2022-11-21T05:42:01.476Z,-2.40
2022-11-21T05:44:31.322Z,-2.37
2022-11-21T05:46:59.607Z,-2.36
2022-11-21T05:49:27.680Z,-2.36
2022-11-21T05:51:55.665Z,-2.36
2022-11-21T05:54:23.622Z,-2.34
2022-11-21T05:56:51.488Z,-2.34
2022-11-21T05:59:19.354Z,-2.33
2022-11-21T06:02:05.860Z,-2.33
2022-11-21T06:04:35.086Z,-2.32
2022-11-21T06:07:03.016Z,-2.31
2022-11-21T06:09:31.304Z,-2.32
2022-11-21T06:11:59.275Z,-2.32
2022-11-21T06:14:27.342Z,-2.30
2022-11-21T06:16:55.624Z,-2.31
2022-11-21T06:19:23.612Z,-2.31
2022-11-21T06:21:51.468Z,-2.30
2022-11-21T06:24:22.097Z,-2.29
2022-11-21T06:26:50.469Z,-2.30
2022-11-21T06:29:18.343Z,-2.32
2022-11-21T06:31:46.310Z,-2.31
2022-11-21T06:34:14.237Z,-2.28
2022-11-21T06:36:42.352Z,-2.25
2022-11-21T06:39:10.412Z,-2.23
2022-11-21T06:41:38.501Z,-2.25
2022-11-21T06:44:06.346Z,-2.26
2022-11-21T06:46:34.233Z,-2.27
2022-11-21T06:49:02.203Z,-2.27
2022-11-21T06:51:30.165Z,-2.25
2022-11-21T06:53:59.417Z,-2.23
2022-11-21T06:56:29.718Z,-2.20
2022-11-21T06:58:58.706Z,-2.19
2022-11-21T07:01:26.950Z,-2.18
2022-11-21T07:03:55.829Z,-2.15
2022-11-21T07:06:24.444Z,-2.13
2022-11-21T07:11:45.814Z,-2.10
2022-11-21T07:14:13.631Z,-2.09
2022-11-21T07:16:41.495Z,-2.11
2022-11-21T07:19:09.485Z,-2.10
2022-11-21T07:21:37.760Z,-2.11
2022-11-21T07:24:06.280Z,-2.10
2022-11-21T07:26:34.170Z,-2.07
2022-11-21T07:29:02.115Z,-2.05
2022-11-21T07:31:30.050Z,-2.05
2022-11-21T07:33:57.864Z,-2.05
2022-11-21T07:36:25.681Z,-2.04
2022-11-21T07:38:53.656Z,-2.01
2022-11-21T07:41:21.489Z,-1.98
2022-11-21T07:43:49.386Z,-1.98
2022-11-21T07:46:17.184Z,-1.95
2022-11-21T07:48:45.018Z,-1.93
2022-11-21T07:51:12.890Z,-1.88
2022-11-21T07:53:40.760Z,-1.82
2022-11-21T07:56:09.891Z,-1.78
2022-11-21T07:58:37.872Z,-1.74
2022-11-21T08:01:06.970Z,-1.70
2022-11-21T08:03:35.192Z,-1.65
2022-11-21T08:06:04.840Z,-1.60
2022-11-21T08:08:32.977Z,-1.58
2022-11-21T08:11:05.868Z,-1.56
2022-11-21T08:13:35.523Z,-1.60
2022-11-21T08:16:04.622Z,-1.61
2022-11-21T08:18:34.276Z,-1.60
2022-11-21T08:21:03.553Z,-1.59
2022-11-21T08:23:32.178Z,-1.61
2022-11-21T08:26:00.120Z,-1.60
2022-11-21T08:28:28.410Z,-1.57
2022-11-21T08:30:56.411Z,-1.53
2022-11-21T08:33:24.399Z,-1.48
2022-11-21T08:35:55.111Z,-1.45
2022-11-21T08:38:23.293Z,-1.39
2022-11-21T08:41:14.786Z,-1.36
2022-11-21T08:43:45.765Z,-1.29
2022-11-21T08:46:13.649Z,-1.23
2022-11-21T08:48:41.515Z,-1.16
2022-11-21T08:51:09.529Z,-1.14
2022-11-21T08:53:37.508Z,-1.11
2022-11-21T08:56:05.571Z,-1.05
2022-11-21T08:58:33.601Z,-1.05
2022-11-21T09:01:01.646Z,-1.03
2022-11-21T09:03:31.435Z,-0.97
2022-11-21T09:06:00.440Z,-0.88
2022-11-21T09:08:30.793Z,-0.83
2022-11-21T09:10:59.251Z,-0.82
2022-11-21T09:13:27.721Z,-0.77
2022-11-21T09:16:19.145Z,-0.75
2022-11-21T09:18:51.642Z,-0.71
2022-11-21T09:21:20.537Z,-0.68
2022-11-21T09:23:48.343Z,-0.69
2022-11-21T09:26:16.228Z,-0.71
2022-11-21T09:28:44.162Z,-0.69
2022-11-21T09:31:12.476Z,-0.63
2022-11-21T09:33:40.347Z,-0.58
2022-11-21T09:36:08.156Z,-0.53
2022-11-21T09:38:35.964Z,-0.49
2022-11-21T09:41:46.297Z,-0.59
2022-11-21T09:44:39.322Z,-0.62
2022-11-21T09:47:28.097Z,-0.66
2022-11-21T09:50:18.039Z,-0.71
2022-11-21T09:53:06.917Z,-0.75
2022-11-21T09:55:34.768Z,-0.74
2022-11-21T09:58:09.309Z,-0.64
2022-11-21T10:00:37.244Z,-0.55
2022-11-21T10:03:05.433Z,-0.48
2022-11-21T10:05:51.679Z,-0.40
2022-11-21T10:08:40.941Z,-0.34
2022-11-21T10:12:05.256Z,-0.30
2022-11-21T10:14:48.253Z,-0.24
2022-11-21T10:17:48.762Z,-0.23
2022-11-21T10:20:31.803Z,-0.15
2022-11-21T10:23:08.885Z,-0.10
2022-11-21T10:25:39.028Z,-0.06
2022-11-21T10:28:19.576Z,-0.00
2022-11-21T10:30:51.740Z,0.07
2022-11-21T10:33:30.754Z,0.13
2022-11-21T10:36:47.436Z,0.17
2022-11-21T10:39:24.540Z,0.23
2022-11-21T10:42:12.457Z,0.29
2022-11-21T10:44:58.900Z,0.29
2022-11-21T10:47:33.995Z,0.34
2022-11-21T10:50:10.771Z,0.34
2022-11-21T10:52:48.150Z,0.30
2022-11-21T10:55:18.145Z,0.33
2022-11-21T10:57:51.357Z,0.32
2022-11-21T11:00:24.897Z,0.25
2022-11-21T11:02:56.082Z,0.27
2022-11-21T11:05:26.429Z,0.29
2022-11-21T11:08:08.325Z,0.31
2022-11-21T11:10:36.120Z,0.36
2022-11-21T11:13:46.436Z,0.43
2022-11-21T11:16:17.315Z,0.43
2022-11-21T11:18:57.651Z,0.41
2022-11-21T11:21:31.255Z,0.38
2022-11-21T11:24:11.453Z,0.32
2022-11-21T11:26:49.043Z,0.32
2022-11-21T11:29:20.467Z,0.38
2022-11-21T11:31:56.698Z,0.42
2022-11-21T11:35:06.578Z,0.51
2022-11-21T11:37:55.530Z,0.54
2022-11-21T11:40:42.899Z,0.53
2022-11-21T11:43:35.749Z,0.55
2022-11-21T11:46:35.718Z,0.51
2022-11-21T11:49:20.184Z,0.54
2022-11-21T11:51:54.790Z,0.53
2022-11-21T11:54:48.584Z,0.49
2022-11-21T11:57:17.510Z,0.43
2022-11-21T11:59:57.910Z,0.41
2022-11-21T12:02:40.922Z,0.43
2022-11-21T12:05:20.236Z,0.33
2022-11-21T12:11:24.740Z,0.09
2022-11-21T12:13:57.502Z,0.13
2022-11-21T12:16:26.912Z,0.17
2022-11-21T12:19:11.012Z,0.21
2022-11-21T12:21:38.870Z,0.21
2022-11-21T12:24:11.260Z,0.22
2022-11-21T12:26:48.283Z,0.18
2022-11-21T12:29:34.972Z,0.14
2022-11-21T12:32:30.533Z,0.17
2022-11-21T12:35:04.164Z,0.18
2022-11-21T12:38:19.697Z,0.14
2022-11-21T12:40:56.589Z,0.12
2022-11-21T12:43:53.102Z,0.13
2022-11-21T12:46:34.877Z,0.11
2022-11-21T12:49:59.833Z,0.02
2022-11-21T12:53:00.505Z,-0.03
2022-11-21T12:55:40.911Z,-0.03
2022-11-21T12:58:32.986Z,-0.04
2022-11-21T13:01:22.316Z,-0.04
2022-11-21T13:04:15.716Z,-0.13
2022-11-21T13:06:46.982Z,-0.14
2022-11-21T13:09:19.181Z,-0.14
2022-11-21T13:12:00.593Z,-0.10
2022-11-21T13:14:45.269Z,-0.14
2022-11-21T13:17:25.741Z,-0.25
2022-11-21T13:20:05.317Z,-0.31
2022-11-21T13:22:36.286Z,-0.34
2022-11-21T13:25:30.129Z,-0.40
2022-11-21T13:28:13.379Z,-0.45
2022-11-21T13:30:50.957Z,-0.48
2022-11-21T13:33:37.340Z,-0.50
2022-11-21T13:36:08.021Z,-0.52
2022-11-21T13:38:51.290Z,-0.57
2022-11-21T13:41:53.480Z,-0.57
2022-11-21T13:44:33.685Z,-0.58
2022-11-21T13:47:02.886Z,-0.61
2022-11-21T13:49:57.020Z,-0.68
2022-11-21T13:52:55.997Z,-0.76
2022-11-21T13:55:51.313Z,-0.75
2022-11-21T13:58:34.469Z,-0.73
2022-11-21T14:01:23.280Z,-0.73
2022-11-21T14:04:09.588Z,-0.80
2022-11-21T14:06:43.216Z,-0.85
2022-11-21T14:09:28.273Z,-0.89
2022-11-21T14:12:30.019Z,-0.94
2022-11-21T14:15:00.674Z,-0.99
2022-11-21T14:17:48.965Z,-1.05
2022-11-21T14:20:19.296Z,-1.08
2022-11-21T14:22:54.875Z,-1.10
2022-11-21T14:25:36.451Z,-1.12
2022-11-21T14:28:06.884Z,-1.15
2022-11-21T14:30:40.157Z,-1.16
2022-11-21T14:33:28.623Z,-1.22
2022-11-21T14:36:19.290Z,-1.24
2022-11-21T14:39:13.838Z,-1.26
2022-11-21T14:41:39.360Z,-1.26
2022-11-21T14:44:16.601Z,-1.28
2022-11-21T14:46:47.354Z,-1.29
2022-11-21T14:49:21.847Z,-1.33
2022-11-21T14:52:11.037Z,-1.34
2022-11-21T14:55:06.099Z,-1.30
2022-11-21T14:57:41.796Z,-1.26
2022-11-21T15:00:43.479Z,-1.20
2022-11-21T15:03:04.657Z,-1.20
2022-11-21T15:06:00.813Z,-1.21
2022-11-21T15:11:13.715Z,-1.20
2022-11-21T15:14:12.315Z,-1.21
2022-11-21T15:16:33.084Z,-1.24
2022-11-21T15:19:01.036Z,-1.24
2022-11-21T15:21:29.738Z,-1.28
2022-11-21T15:23:57.626Z,-1.34
2022-11-21T15:26:33.969Z,-1.37
2022-11-21T15:29:02.118Z,-1.37
2022-11-21T15:31:30.002Z,-1.37
2022-11-21T15:37:12.768Z,-1.43
2022-11-21T15:39:45.546Z,-1.44
2022-11-21T15:42:50.164Z,-1.46
2022-11-21T15:45:26.988Z,-1.45
2022-11-21T15:47:56.073Z,-1.44
2022-11-21T15:50:25.110Z,-1.44
2022-11-21T15:52:53.379Z,-1.43
2022-11-21T15:55:31.500Z,-1.42
2022-11-21T15:57:59.372Z,-1.39
2022-11-21T16:00:27.233Z,-1.36
2022-11-21T16:02:55.102Z,-1.31
2022-11-21T16:05:23.072Z,-1.31
2022-11-21T16:07:51.047Z,-1.32
2022-11-21T16:10:26.101Z,-1.33
2022-11-21T16:12:56.168Z,-1.41
2022-11-21T16:15:24.115Z,-1.44
2022-11-21T16:17:52.649Z,-1.46
2022-11-21T16:20:20.781Z,-1.44
2022-11-21T16:22:50.002Z,-1.44
2022-11-21T16:25:18.104Z,-1.48
2022-11-21T16:27:47.195Z,-1.46
2022-11-21T16:30:15.421Z,-1.44
2022-11-21T16:32:43.438Z,-1.41
2022-11-21T16:35:11.406Z,-1.43
2022-11-21T16:37:40.199Z,-1.43
2022-11-21T16:40:10.005Z,-1.47
2022-11-21T16:42:37.877Z,-1.47
2022-11-21T16:45:06.182Z,-1.49
2022-11-21T16:47:37.247Z,-1.47
2022-11-21T16:50:05.910Z,-1.41
2022-11-21T16:52:35.739Z,-1.37
2022-11-21T16:55:04.592Z,-1.34
2022-11-21T16:57:33.375Z,-1.33
2022-11-21T17:00:01.247Z,-1.35
2022-11-21T17:02:29.185Z,-1.32
2022-11-21T17:04:57.382Z,-1.28
2022-11-21T17:07:25.284Z,-1.28
2022-11-21T17:09:53.147Z,-1.30
2022-11-21T17:12:20.999Z,-1.31
2022-11-21T17:14:52.794Z,-1.32
2022-11-21T17:17:20.662Z,-1.33
2022-11-21T17:19:48.981Z,-1.36
2022-11-21T17:22:20.185Z,-1.41
2022-11-21T17:24:53.439Z,-1.42
2022-11-21T17:27:22.857Z,-1.39
2022-11-21T17:29:51.324Z,-1.38
2022-11-21T17:32:19.236Z,-1.36
2022-11-21T17:34:47.103Z,-1.34
2022-11-21T17:37:14.976Z,-1.34
2022-11-21T17:39:42.890Z,-1.33
2022-11-21T17:42:10.887Z,-1.32
2022-11-21T17:44:38.748Z,-1.33
2022-11-21T17:47:06.795Z,-1.36
2022-11-21T17:49:37.308Z,-1.37
2022-11-21T17:52:06.837Z,-1.37
2022-11-21T17:54:34.914Z,-1.37
2022-11-21T17:57:03.186Z,-1.38
2022-11-21T17:59:31.273Z,-1.37
2022-11-21T18:01:59.463Z,-1.36
2022-11-21T18:04:28.570Z,-1.31
2022-11-21T18:06:56.799Z,-1.25
2022-11-21T18:09:24.775Z,-1.25
2022-11-21T18:11:52.646Z,-1.26
2022-11-21T18:14:20.613Z,-1.26
2022-11-21T18:16:53.103Z,-1.28
2022-11-21T18:19:22.192Z,-1.28
2022-11-21T18:21:51.856Z,-1.30
2022-11-21T18:24:19.727Z,-1.31
2022-11-21T18:26:47.742Z,-1.33
2022-11-21T18:32:04.051Z,-1.36
2022-11-21T18:34:31.953Z,-1.36
2022-11-21T18:36:59.790Z,-1.37
2022-11-21T18:39:27.753Z,-1.34
2022-11-21T18:41:55.827Z,-1.31
2022-11-21T18:44:23.900Z,-1.28
2022-11-21T18:46:52.019Z,-1.28
2022-11-21T18:49:19.987Z,-1.27
2022-11-21T18:51:48.851Z,-1.22
2022-11-21T18:54:17.365Z,-1.17
2022-11-21T18:56:45.390Z,-1.17
2022-11-21T18:59:13.255Z,-1.21
2022-11-21T19:01:41.326Z,-1.27
2022-11-21T19:04:09.606Z,-1.27
2022-11-21T19:06:37.517Z,-1.26
2022-11-21T19:09:05.511Z,-1.26
2022-11-21T19:11:33.328Z,-1.23
2022-11-21T19:14:01.329Z,-1.24
2022-11-21T19:16:36.856Z,-1.25
2022-11-21T19:21:57.868Z,-1.27
2022-11-21T19:24:25.792Z,-1.30
2022-11-21T19:26:53.620Z,-1.29
2022-11-21T19:29:21.536Z,-1.26
2022-11-21T19:31:49.737Z,-1.24
2022-11-21T19:34:17.908Z,-1.22
2022-11-21T19:36:46.073Z,-1.29
2022-11-21T19:39:14.382Z,-1.30
2022-11-21T19:41:42.253Z,-1.30
2022-11-21T19:44:11.585Z,-1.29
2022-11-21T19:46:40.064Z,-1.27
2022-11-21T19:49:10.860Z,-1.24
2022-11-21T19:51:41.854Z,-1.16
2022-11-21T19:54:12.341Z,-1.10
2022-11-21T19:56:40.476Z,-1.05
2022-11-21T19:59:12.618Z,-1.03
2022-11-21T20:01:40.925Z,-0.99
2022-11-21T20:04:09.128Z,-0.97
2022-11-21T20:06:41.549Z,-0.99
2022-11-21T20:09:12.056Z,-0.95
2022-11-21T20:11:41.686Z,-0.93
2022-11-21T20:14:10.024Z,-0.87
2022-11-21T20:16:40.921Z,-0.82
2022-11-21T20:19:12.335Z,-0.80
2022-11-21T20:21:40.895Z,-0.85
2022-11-21T20:24:08.902Z,-0.89
2022-11-21T20:26:37.359Z,-0.88
2022-11-21T20:29:06.304Z,-0.88
2022-11-21T20:31:37.777Z,-0.89
2022-11-21T20:34:09.894Z,-0.90
2022-11-21T20:36:38.200Z,-0.88
2022-11-21T20:39:15.615Z,-0.83
2022-11-21T20:41:45.417Z,-0.79
2022-11-21T20:45:07.045Z,-0.75
2022-11-21T20:47:03.215Z,-0.71
2022-11-21T20:49:31.975Z,-0.73
2022-11-21T20:54:48.009Z,-0.87
2022-11-21T20:57:16.061Z,-0.91
2022-11-21T20:59:43.956Z,-0.90
2022-11-21T21:02:13.903Z,-0.88
2022-11-21T21:04:42.377Z,-0.89
2022-11-21T21:07:10.463Z,-0.93
2022-11-21T21:09:38.455Z,-0.90
2022-11-21T21:12:06.597Z,-0.88
2022-11-21T21:14:34.629Z,-0.88
2022-11-21T21:17:02.523Z,-0.91
2022-11-21T21:19:30.576Z,-0.94
2022-11-21T21:21:58.974Z,-0.94
2022-11-21T21:24:27.760Z,-0.95
2022-11-21T21:26:55.568Z,-1.03
2022-11-21T21:29:23.492Z,-1.02
2022-11-21T21:31:52.558Z,-1.00
2022-11-21T21:34:22.436Z,-0.99
2022-11-21T21:36:51.551Z,-0.96
2022-11-21T21:39:19.621Z,-0.97
2022-11-21T21:41:47.994Z,-0.99
2022-11-21T21:44:16.791Z,-1.00
2022-11-21T21:46:45.102Z,-0.99
2022-11-21T21:49:13.358Z,-0.97
2022-11-21T21:51:41.525Z,-0.96
2022-11-21T21:54:20.475Z,-0.96
2022-11-21T21:56:48.519Z,-0.95
2022-11-21T21:59:18.305Z,-0.95
2022-11-21T22:01:46.894Z,-0.96
2022-11-21T22:04:14.920Z,-0.95
2022-11-21T22:06:42.895Z,-0.97
2022-11-21T22:09:10.818Z,-1.02
2022-11-21T22:11:39.423Z,-1.02
2022-11-21T22:14:12.119Z,-1.05
2022-11-21T22:16:40.962Z,-1.12
2022-11-21T22:19:09.464Z,-1.21
2022-11-21T22:21:38.565Z,-1.25
2022-11-21T22:24:30.493Z,-1.28
2022-11-21T22:26:58.513Z,-1.33
2022-11-21T22:29:26.484Z,-1.31
2022-11-21T22:31:54.327Z,-1.30
2022-11-21T22:34:22.662Z,-1.31
2022-11-21T22:36:50.475Z,-1.32
2022-11-21T22:39:18.378Z,-1.39
2022-11-21T22:41:46.294Z,-1.46
2022-11-21T22:44:14.266Z,-1.46
2022-11-21T22:46:42.221Z,-1.47
2022-11-21T22:49:10.125Z,-1.49
2022-11-21T22:51:38.009Z,-1.51
2022-11-21T22:54:05.912Z,-1.46
2022-11-21T22:56:33.793Z,-1.42
2022-11-21T22:59:01.762Z,-1.40
2022-11-21T23:01:29.787Z,-1.41
2022-11-21T23:03:57.749Z,-1.40
2022-11-21T23:06:27.200Z,-1.37
2022-11-21T23:08:56.744Z,-1.37
2022-11-21T23:11:36.370Z,-1.34
2022-11-21T23:14:08.629Z,-1.34
2022-11-21T23:16:37.041Z,-1.36
2022-11-21T23:19:05.030Z,-1.37
2022-11-21T23:21:32.947Z,-1.37
2022-11-21T23:24:00.903Z,-1.36
2022-11-21T23:26:28.786Z,-1.34
2022-11-21T23:28:56.701Z,-1.32
2022-11-21T23:31:24.663Z,-1.31
2022-11-21T23:33:53.001Z,-1.29
2022-11-21T23:36:20.886Z,-1.27
2022-11-21T23:38:48.764Z,-1.28
2022-11-21T23:41:16.624Z,-1.30
2022-11-21T23:43:44.543Z,-1.29
2022-11-21T23:46:12.427Z,-1.29
2022-11-21T23:48:40.411Z,-1.31
2022-11-21T23:51:08.791Z,-1.31
2022-11-21T23:53:36.693Z,-1.28
2022-11-21T23:56:04.874Z,-1.24
2022-11-21T23:58:32.906Z,-1.23
